createdAt,value
2023-05-19T00:01:19.113Z,40.70
2023-05-19T00:03:54.640Z,40.80
2023-05-19T00:06:31.853Z,40.80
2023-05-19T00:08:59.796Z,40.90
2023-05-19T00:11:28.022Z,40.90
2023-05-19T00:13:57.315Z,41.10
2023-05-19T00:16:25.861Z,41.00
2023-05-19T00:18:53.324Z,41.00
2023-05-19T00:21:21.104Z,41.20
2023-05-19T00:23:47.969Z,41.30
2023-05-19T00:26:14.904Z,41.30
2023-05-19T00:28:53.120Z,41.50
2023-05-19T00:31:20.559Z,41.50
2023-05-19T00:33:47.421Z,41.40
2023-05-19T00:36:14.274Z,41.50
2023-05-19T00:38:41.170Z,41.70
2023-05-19T00:41:08.072Z,41.70
2023-05-19T00:43:34.955Z,42.10
2023-05-19T00:46:02.391Z,42.20
2023-05-19T00:48:29.383Z,42.10
2023-05-19T00:51:04.857Z,42.10
2023-05-19T00:53:33.844Z,42.20
2023-05-19T00:56:01.895Z,42.30
2023-05-19T00:58:30.741Z,42.20
2023-05-19T01:01:06.963Z,42.20
2023-05-19T01:03:36.195Z,42.10
2023-05-19T01:06:07.177Z,42.10
2023-05-19T01:08:37.121Z,42.20
2023-05-19T01:11:07.999Z,42.10
2023-05-19T01:13:36.320Z,42.10
2023-05-19T01:16:40.226Z,42.40
2023-05-19T01:19:36.936Z,43.10
2023-05-19T01:22:38.508Z,42.80
2023-05-19T01:25:17.885Z,42.80
2023-05-19T01:28:08.743Z,42.50
2023-05-19T01:30:44.001Z,42.40
2023-05-19T01:33:16.572Z,42.40
2023-05-19T01:35:44.733Z,42.50
2023-05-19T01:38:16.466Z,42.70
2023-05-19T01:40:44.639Z,42.90
2023-05-19T01:43:18.882Z,43.00
2023-05-19T01:45:46.643Z,43.50
2023-05-19T01:48:14.893Z,43.20
2023-05-19T01:50:42.549Z,43.20
2023-05-19T01:53:10.089Z,43.30
2023-05-19T01:55:53.719Z,43.90
2023-05-19T01:58:44.862Z,43.60
2023-05-19T02:01:31.016Z,44.00
2023-05-19T02:04:10.050Z,43.50
2023-05-19T02:07:05.529Z,43.80
2023-05-19T02:09:53.974Z,44.20
2023-05-19T02:12:28.702Z,43.70
2023-05-19T02:15:10.098Z,43.70
2023-05-19T02:17:41.638Z,44.00
2023-05-19T02:20:10.469Z,43.80
2023-05-19T02:22:37.691Z,43.90
2023-05-19T02:25:05.007Z,44.20
2023-05-19T02:27:36.996Z,44.30
2023-05-19T02:30:05.544Z,44.40
2023-05-19T02:32:33.246Z,44.40
2023-05-19T02:35:00.273Z,44.60
2023-05-19T02:37:28.673Z,44.40
2023-05-19T02:39:55.775Z,44.50
2023-05-19T02:42:22.816Z,44.70
2023-05-19T02:44:49.893Z,44.80
2023-05-19T02:47:17.489Z,44.90
2023-05-19T02:49:45.068Z,44.80
2023-05-19T02:52:12.231Z,44.90
2023-05-19T02:54:39.542Z,44.80
2023-05-19T02:57:06.863Z,44.80
2023-05-19T02:59:33.803Z,44.80
2023-05-19T03:02:01.645Z,45.70
2023-05-19T03:04:29.684Z,43.80
2023-05-19T03:06:57.777Z,45.20
2023-05-19T03:09:24.881Z,45.20
2023-05-19T03:11:51.964Z,45.40
2023-05-19T03:14:18.867Z,45.50
2023-05-19T03:16:45.931Z,45.50
2023-05-19T03:19:12.990Z,45.50
2023-05-19T03:21:39.870Z,45.50
2023-05-19T03:24:07.172Z,45.80
2023-05-19T03:26:34.997Z,45.90
2023-05-19T03:29:01.889Z,46.10
2023-05-19T03:31:30.818Z,46.10
2023-05-19T03:33:58.817Z,46.30
2023-05-19T03:36:26.321Z,46.30
2023-05-19T03:38:53.418Z,46.20
2023-05-19T03:41:21.129Z,46.10
2023-05-19T03:43:48.045Z,46.10
2023-05-19T03:46:15.526Z,46.20
2023-05-19T03:48:42.389Z,46.20
2023-05-19T03:51:31.717Z,46.30
2023-05-19T03:54:06.846Z,46.20
2023-05-19T03:56:34.420Z,46.30
2023-05-19T03:59:01.449Z,46.40
2023-05-19T04:01:28.304Z,46.50
2023-05-19T04:03:55.187Z,46.50
2023-05-19T04:06:23.466Z,46.60
2023-05-19T04:08:50.474Z,46.70
2023-05-19T04:11:19.977Z,46.70
2023-05-19T04:13:46.859Z,46.80
2023-05-19T04:16:14.299Z,46.90
2023-05-19T04:18:42.362Z,46.90
2023-05-19T04:21:09.218Z,46.90
2023-05-19T04:23:36.053Z,46.90
2023-05-19T04:26:03.692Z,47.00
2023-05-19T04:28:30.535Z,47.10
2023-05-19T04:30:58.826Z,47.20
2023-05-19T04:33:25.723Z,47.30
2023-05-19T04:35:52.671Z,47.30
2023-05-19T04:38:20.038Z,47.30
2023-05-19T04:40:50.196Z,47.50
2023-05-19T04:43:18.155Z,47.60
2023-05-19T04:45:46.572Z,47.70
2023-05-19T04:48:14.082Z,47.70
2023-05-19T04:50:42.057Z,47.70
2023-05-19T04:53:10.012Z,47.80
2023-05-19T04:55:38.799Z,47.80
2023-05-19T04:58:06.761Z,47.80
2023-05-19T05:00:35.683Z,47.80
2023-05-19T05:03:06.419Z,48.00
2023-05-19T05:05:35.076Z,48.20
2023-05-19T05:08:01.931Z,48.20
2023-05-19T05:10:32.766Z,48.10
2023-05-19T05:13:00.840Z,48.20
2023-05-19T05:15:29.813Z,48.10
2023-05-19T05:17:59.013Z,48.30
2023-05-19T05:20:26.534Z,48.40
2023-05-19T05:22:53.750Z,48.50
2023-05-19T05:25:22.104Z,48.60
2023-05-19T05:27:49.473Z,48.50
2023-05-19T05:30:16.322Z,48.50
2023-05-19T05:32:43.309Z,48.50
2023-05-19T05:35:24.303Z,48.80
2023-05-19T05:37:51.915Z,48.90
2023-05-19T05:40:19.298Z,48.90
2023-05-19T05:42:46.426Z,49.00
2023-05-19T05:45:13.469Z,49.00
2023-05-19T05:47:41.574Z,49.20
2023-05-19T05:50:10.162Z,49.20
2023-05-19T05:52:38.673Z,49.40
2023-05-19T05:55:06.896Z,50.10
2023-05-19T05:57:36.449Z,49.50
2023-05-19T06:00:10.460Z,49.60
2023-05-19T06:02:47.312Z,49.70
2023-05-19T06:05:15.269Z,49.90
2023-05-19T06:07:43.274Z,49.60
2023-05-19T06:10:14.985Z,49.50
2023-05-19T06:12:43.244Z,49.50
2023-05-19T06:15:11.153Z,49.40
2023-05-19T06:17:50.882Z,49.50
2023-05-19T06:20:19.985Z,49.50
2023-05-19T06:22:46.873Z,49.60
2023-05-19T06:25:15.268Z,49.50
2023-05-19T06:27:42.558Z,49.80
2023-05-19T06:30:09.810Z,49.80
2023-05-19T06:32:46.983Z,49.80
2023-05-19T06:35:14.086Z,49.70
2023-05-19T06:37:40.936Z,49.80
2023-05-19T06:40:08.542Z,49.90
2023-05-19T06:42:36.751Z,49.90
2023-05-19T06:45:23.664Z,49.80
2023-05-19T06:47:51.782Z,49.70
2023-05-19T06:50:19.249Z,49.70
2023-05-19T06:52:48.792Z,49.70
2023-05-19T06:55:15.920Z,49.70
2023-05-19T06:57:43.479Z,49.40
2023-05-19T07:00:13.425Z,49.20
2023-05-19T07:02:44.037Z,49.20
2023-05-19T07:05:11.108Z,49.20
2023-05-19T07:07:38.101Z,49.70
2023-05-19T07:10:08.743Z,49.20
2023-05-19T07:12:35.753Z,49.30
2023-05-19T07:15:03.074Z,49.30
2023-05-19T07:17:30.717Z,49.00
2023-05-19T07:19:58.924Z,49.00
2023-05-19T07:22:25.845Z,48.90
2023-05-19T07:24:52.817Z,48.90
2023-05-19T07:27:19.763Z,48.90
2023-05-19T07:29:46.608Z,48.90
2023-05-19T07:32:13.545Z,49.00
2023-05-19T07:34:40.987Z,49.00
2023-05-19T07:37:08.333Z,49.00
2023-05-19T07:39:36.070Z,48.90
2023-05-19T07:42:03.417Z,49.00
2023-05-19T07:44:31.450Z,48.90
2023-05-19T07:46:58.484Z,48.80
2023-05-19T07:49:25.359Z,49.80
2023-05-19T07:51:52.371Z,48.70
2023-05-19T07:54:19.530Z,48.70
2023-05-19T07:56:47.114Z,48.80
2023-05-19T07:59:14.991Z,49.00
2023-05-19T08:01:42.191Z,49.00
2023-05-19T08:04:11.177Z,48.90
2023-05-19T08:06:40.164Z,49.00
2023-05-19T08:09:07.352Z,48.80
2023-05-19T08:11:34.265Z,48.80
2023-05-19T08:14:01.128Z,48.80
2023-05-19T08:16:28.119Z,48.70
2023-05-19T08:18:55.299Z,48.60
2023-05-19T08:21:22.454Z,48.70
2023-05-19T08:23:49.341Z,48.70
2023-05-19T08:26:16.348Z,48.70
2023-05-19T08:28:44.247Z,48.50
2023-05-19T08:31:11.269Z,48.50
2023-05-19T08:33:38.128Z,48.50
2023-05-19T08:36:05.465Z,48.40
2023-05-19T08:38:32.414Z,48.40
2023-05-19T08:40:59.876Z,48.30
2023-05-19T08:43:26.788Z,48.30
2023-05-19T08:45:55.514Z,48.10
2023-05-19T08:48:22.717Z,48.00
2023-05-19T08:51:04.905Z,47.90
2023-05-19T08:53:40.554Z,47.80
2023-05-19T08:56:11.132Z,47.20
2023-05-19T08:58:43.882Z,48.00
2023-05-19T09:01:14.431Z,47.70
2023-05-19T09:03:42.954Z,47.60
2023-05-19T09:06:13.707Z,47.40
2023-05-19T09:08:41.537Z,47.40
2023-05-19T09:11:09.741Z,47.50
2023-05-19T09:13:36.890Z,47.40
2023-05-19T09:16:04.359Z,47.30
2023-05-19T09:18:31.479Z,47.00
2023-05-19T09:21:00.446Z,48.10
2023-05-19T09:23:29.643Z,46.70
2023-05-19T09:25:57.371Z,46.70
2023-05-19T09:28:33.239Z,46.70
2023-05-19T09:31:07.054Z,46.70
2023-05-19T09:33:36.216Z,46.50
2023-05-19T09:36:06.181Z,46.60
2023-05-19T09:38:33.288Z,45.10
2023-05-19T09:41:01.311Z,46.40
2023-05-19T09:43:33.538Z,46.20
2023-05-19T09:46:04.486Z,46.20
2023-05-19T09:48:31.578Z,46.20
2023-05-19T09:51:00.227Z,46.00
2023-05-19T09:53:30.202Z,46.00
2023-05-19T09:55:58.117Z,46.10
2023-05-19T09:58:26.435Z,46.00
2023-05-19T10:00:56.876Z,45.90
2023-05-19T10:03:24.562Z,45.80
2023-05-19T10:05:53.338Z,45.60
2023-05-19T10:08:20.361Z,45.60
2023-05-19T10:10:47.808Z,46.90
2023-05-19T10:13:16.464Z,45.60
2023-05-19T10:15:57.146Z,45.60
2023-05-19T10:18:26.224Z,45.60
2023-05-19T10:20:53.298Z,45.50
2023-05-19T10:23:20.120Z,45.30
2023-05-19T10:25:49.191Z,45.20
2023-05-19T10:28:18.481Z,44.90
2023-05-19T10:30:49.483Z,44.80
2023-05-19T10:33:18.793Z,44.80
2023-05-19T10:36:11.079Z,44.60
2023-05-19T10:39:12.697Z,44.10
2023-05-19T10:41:55.704Z,44.30
2023-05-19T10:44:53.109Z,44.40
2023-05-19T10:47:26.769Z,44.60
2023-05-19T10:49:54.529Z,44.50
2023-05-19T10:52:28.808Z,44.60
2023-05-19T10:54:56.074Z,44.50
2023-05-19T10:57:28.108Z,45.90
2023-05-19T10:59:56.626Z,43.80
2023-05-19T11:02:43.349Z,44.00
2023-05-19T11:05:18.612Z,43.80
2023-05-19T11:07:57.253Z,43.50
2023-05-19T11:10:24.986Z,43.30
2023-05-19T11:12:52.229Z,43.30
2023-05-19T11:15:24.079Z,43.50
2023-05-19T11:17:51.213Z,43.40
2023-05-19T11:20:25.677Z,43.50
2023-05-19T11:23:01.903Z,43.30
2023-05-19T11:25:47.581Z,43.00
2023-05-19T11:28:25.612Z,42.90
2023-05-19T11:30:55.236Z,43.00
2023-05-19T11:33:27.057Z,43.00
2023-05-19T11:35:58.704Z,42.90
2023-05-19T11:38:26.795Z,42.80
2023-05-19T11:40:54.495Z,43.00
2023-05-19T11:43:25.459Z,43.00
2023-05-19T11:45:54.313Z,42.70
2023-05-19T11:48:22.532Z,42.30
2023-05-19T11:50:50.224Z,42.10
2023-05-19T11:53:19.496Z,42.10
2023-05-19T11:55:47.684Z,41.90
2023-05-19T11:58:14.957Z,41.80
2023-05-19T12:00:45.934Z,41.50
2023-05-19T12:03:13.366Z,41.40
2023-05-19T12:05:49.010Z,41.30
2023-05-19T12:08:19.109Z,41.00
2023-05-19T12:10:51.786Z,41.30
2023-05-19T12:13:19.819Z,41.30
2023-05-19T12:15:46.974Z,41.10
2023-05-19T12:18:14.057Z,40.90
2023-05-19T12:20:41.065Z,40.90
2023-05-19T12:23:07.998Z,40.90
2023-05-19T12:25:35.124Z,40.80
2023-05-19T12:28:05.433Z,40.70
2023-05-19T12:30:33.169Z,40.90
2023-05-19T12:33:02.356Z,40.90
2023-05-19T12:35:33.184Z,40.90
2023-05-19T12:38:09.457Z,39.90
2023-05-19T12:40:37.787Z,40.40
2023-05-19T12:43:05.710Z,40.60
2023-05-19T12:45:37.112Z,40.50
2023-05-19T12:48:06.589Z,40.40
2023-05-19T12:50:34.387Z,40.30
2023-05-19T12:53:02.032Z,40.20
2023-05-19T12:55:29.643Z,40.40
2023-05-19T12:57:59.417Z,40.60
2023-05-19T13:00:29.020Z,40.50
2023-05-19T13:03:07.436Z,40.40
2023-05-19T13:05:39.509Z,40.10
2023-05-19T13:08:08.678Z,40.30
2023-05-19T13:10:37.488Z,40.20
2023-05-19T13:13:04.882Z,40.20
2023-05-19T13:15:37.812Z,40.00
2023-05-19T13:18:08.600Z,40.00
2023-05-19T13:20:37.625Z,40.10
2023-05-19T13:23:05.733Z,40.20
2023-05-19T13:25:34.400Z,40.20
2023-05-19T13:28:05.180Z,40.00
2023-05-19T13:30:33.415Z,39.90
2023-05-19T13:33:00.618Z,40.20
2023-05-19T13:35:27.643Z,40.30
2023-05-19T13:37:54.914Z,40.40
2023-05-19T13:40:23.980Z,40.30
2023-05-19T13:42:50.890Z,40.10
2023-05-19T13:45:18.380Z,40.10
2023-05-19T13:47:45.291Z,39.60
2023-05-19T13:50:12.424Z,40.40
2023-05-19T13:52:39.426Z,39.20
2023-05-19T13:55:07.509Z,39.00
2023-05-19T13:57:34.519Z,38.90
2023-05-19T14:00:03.681Z,38.50
2023-05-19T14:02:40.590Z,38.40
2023-05-19T14:05:08.071Z,38.10
2023-05-19T14:07:35.708Z,37.90
2023-05-19T14:10:03.901Z,38.00
2023-05-19T14:12:40.396Z,37.80
2023-05-19T14:15:14.471Z,37.50
2023-05-19T14:17:41.608Z,37.20
2023-05-19T14:20:09.654Z,37.00
2023-05-19T14:22:36.688Z,36.70
2023-05-19T14:25:03.780Z,36.50
2023-05-19T14:27:30.787Z,36.20
2023-05-19T14:29:57.719Z,36.00
2023-05-19T14:32:24.610Z,36.20
2023-05-19T14:34:52.941Z,36.40
2023-05-19T14:37:20.491Z,36.30
2023-05-19T14:39:47.296Z,36.70
2023-05-19T14:42:14.248Z,36.60
2023-05-19T14:44:41.081Z,36.60
2023-05-19T14:47:08.437Z,36.50
2023-05-19T14:49:35.538Z,36.70
2023-05-19T14:52:02.481Z,36.40
2023-05-19T14:54:29.348Z,36.10
2023-05-19T14:56:56.249Z,35.90
2023-05-19T14:59:23.192Z,36.60
2023-05-19T15:01:50.011Z,35.70
2023-05-19T15:04:17.062Z,35.70
2023-05-19T15:06:44.348Z,35.50
2023-05-19T15:09:14.894Z,35.50
2023-05-19T15:11:41.810Z,35.30
2023-05-19T15:14:08.655Z,35.10
2023-05-19T15:16:35.547Z,35.30
2023-05-19T15:19:02.437Z,35.20
2023-05-19T15:21:29.329Z,35.10
2023-05-19T15:23:56.216Z,35.20
2023-05-19T15:26:23.227Z,35.20
2023-05-19T15:28:50.028Z,35.20
2023-05-19T15:31:16.895Z,35.10
2023-05-19T15:33:43.804Z,35.30
2023-05-19T15:36:16.252Z,35.40
2023-05-19T15:38:43.098Z,35.30
2023-05-19T15:41:10.519Z,35.20
2023-05-19T15:43:37.473Z,35.20
2023-05-19T15:46:05.188Z,35.50
2023-05-19T15:48:32.400Z,36.50
2023-05-19T15:50:59.805Z,35.60
2023-05-19T15:53:26.864Z,35.60
2023-05-19T15:55:53.773Z,35.70
2023-05-19T15:58:20.886Z,35.50
2023-05-19T16:00:47.777Z,35.70
2023-05-19T16:03:14.736Z,35.70
2023-05-19T16:05:41.627Z,35.70
2023-05-19T16:08:08.888Z,35.50
2023-05-19T16:10:36.061Z,35.50
2023-05-19T16:13:02.924Z,35.50
2023-05-19T16:15:29.763Z,35.50
2023-05-19T16:17:57.252Z,35.70
2023-05-19T16:20:27.849Z,35.70
2023-05-19T16:22:55.513Z,35.90
2023-05-19T16:25:22.872Z,35.60
2023-05-19T16:27:50.342Z,34.90
2023-05-19T16:30:17.376Z,35.30
2023-05-19T16:32:44.335Z,35.00
2023-05-19T16:35:11.388Z,34.80
2023-05-19T16:37:38.245Z,34.90
2023-05-19T16:40:05.599Z,34.80
2023-05-19T16:42:32.431Z,34.70
2023-05-19T16:44:59.227Z,34.70
2023-05-19T16:47:26.202Z,34.70
2023-05-19T16:49:53.418Z,34.60
2023-05-19T16:52:20.561Z,34.60
2023-05-19T16:54:47.456Z,34.80
2023-05-19T16:57:14.889Z,34.90
2023-05-19T16:59:42.147Z,34.90
2023-05-19T17:02:09.138Z,35.60
2023-05-19T17:04:36.112Z,34.90
2023-05-19T17:07:03.016Z,35.00
2023-05-19T17:09:29.831Z,34.90
2023-05-19T17:11:56.674Z,35.00
2023-05-19T17:14:23.654Z,35.10
2023-05-19T17:16:52.387Z,35.30
2023-05-19T17:19:19.392Z,35.30
2023-05-19T17:21:46.392Z,35.40
2023-05-19T17:24:13.264Z,35.50
2023-05-19T17:26:40.334Z,35.40
2023-05-19T17:29:07.256Z,35.30
2023-05-19T17:31:34.187Z,35.30
2023-05-19T17:34:01.102Z,35.50
2023-05-19T17:36:28.111Z,35.50
2023-05-19T17:38:55.019Z,35.50
2023-05-19T17:41:22.730Z,35.70
2023-05-19T17:43:49.616Z,35.70
2023-05-19T17:46:16.542Z,35.70
2023-05-19T17:48:43.833Z,35.60
2023-05-19T17:51:11.323Z,35.50
2023-05-19T17:53:38.598Z,35.60
2023-05-19T17:56:08.904Z,35.60
2023-05-19T17:58:36.322Z,35.70
2023-05-19T18:01:03.286Z,35.60
2023-05-19T18:03:30.779Z,35.50
2023-05-19T18:05:58.709Z,35.60
2023-05-19T18:08:25.979Z,35.70
2023-05-19T18:10:54.923Z,35.80
2023-05-19T18:13:23.560Z,35.90
2023-05-19T18:15:50.612Z,36.00
2023-05-19T18:18:17.464Z,36.10
2023-05-19T18:20:45.686Z,36.10
2023-05-19T18:23:12.552Z,36.10
2023-05-19T18:25:39.400Z,36.90
2023-05-19T18:28:06.237Z,36.20
2023-05-19T18:30:33.277Z,37.00
2023-05-19T18:33:03.503Z,36.40
2023-05-19T18:35:30.780Z,36.20
2023-05-19T18:37:57.639Z,36.20
2023-05-19T18:40:24.679Z,36.20
2023-05-19T18:42:51.604Z,36.10
2023-05-19T18:45:18.621Z,36.00
2023-05-19T18:47:45.847Z,36.10
2023-05-19T18:50:13.070Z,36.10
2023-05-19T18:52:40.096Z,36.20
2023-05-19T18:55:07.430Z,36.20
2023-05-19T18:57:34.251Z,36.20
2023-05-19T19:00:01.497Z,36.20
2023-05-19T19:02:28.411Z,36.30
2023-05-19T19:04:55.477Z,36.40
2023-05-19T19:07:23.857Z,36.40
2023-05-19T19:09:50.855Z,36.50
2023-05-19T19:12:19.101Z,36.60
2023-05-19T19:14:47.106Z,36.50
2023-05-19T19:17:14.203Z,36.50
2023-05-19T19:19:41.321Z,36.60
2023-05-19T19:22:08.247Z,36.70
2023-05-19T19:24:35.850Z,36.70
2023-05-19T19:27:02.879Z,36.70
2023-05-19T19:29:29.886Z,36.70
2023-05-19T19:31:56.748Z,36.70
2023-05-19T19:34:23.677Z,36.60
2023-05-19T19:36:50.630Z,36.60
2023-05-19T19:39:17.548Z,36.60
2023-05-19T19:41:44.415Z,36.70
2023-05-19T19:44:11.204Z,36.80
2023-05-19T19:46:38.167Z,37.10
2023-05-19T19:49:05.191Z,37.20
2023-05-19T19:51:32.291Z,37.00
2023-05-19T19:53:59.162Z,37.10
2023-05-19T19:56:27.390Z,37.20
2023-05-19T19:58:56.832Z,37.50
2023-05-19T20:01:27.517Z,37.40
2023-05-19T20:03:55.881Z,37.50
2023-05-19T20:06:23.257Z,37.60
2023-05-19T20:08:50.156Z,37.60
2023-05-19T20:11:17.359Z,37.50
2023-05-19T20:13:44.182Z,37.60
2023-05-19T20:16:11.510Z,37.50
2023-05-19T20:18:39.528Z,37.70
2023-05-19T20:21:06.426Z,37.50
2023-05-19T20:23:33.259Z,37.50
2023-05-19T20:26:10.846Z,39.20
2023-05-19T20:28:39.857Z,37.80
2023-05-19T20:31:07.055Z,38.10
2023-05-19T20:33:34.032Z,37.10
2023-05-19T20:36:00.900Z,38.30
2023-05-19T20:38:27.782Z,38.80
2023-05-19T20:40:54.826Z,38.70
2023-05-19T20:43:21.741Z,38.60
2023-05-19T20:45:48.821Z,38.70
2023-05-19T20:48:16.041Z,38.60
2023-05-19T20:50:43.179Z,38.70
2023-05-19T20:53:10.057Z,39.00
2023-05-19T20:55:38.310Z,38.90
2023-05-19T20:58:05.388Z,38.90
2023-05-19T21:00:32.831Z,39.10
2023-05-19T21:03:00.013Z,39.20
2023-05-19T21:05:27.073Z,39.20
2023-05-19T21:07:53.988Z,39.20
2023-05-19T21:10:20.953Z,39.30
2023-05-19T21:12:48.141Z,39.50
2023-05-19T21:15:15.133Z,39.40
2023-05-19T21:17:42.042Z,39.60
2023-05-19T21:20:09.557Z,39.60
2023-05-19T21:22:36.418Z,39.70
2023-05-19T21:25:03.900Z,39.70
2023-05-19T21:27:32.850Z,39.70
2023-05-19T21:30:00.162Z,38.50
2023-05-19T21:32:28.097Z,39.90
2023-05-19T21:34:55.173Z,40.10
2023-05-19T21:37:22.090Z,39.80
2023-05-19T21:39:49.073Z,40.30
2023-05-19T21:42:16.112Z,40.50
2023-05-19T21:44:43.052Z,40.50
2023-05-19T21:47:10.299Z,40.60
2023-05-19T21:49:38.335Z,40.80
2023-05-19T21:52:06.324Z,40.80
2023-05-19T21:54:33.569Z,40.90
2023-05-19T21:57:00.751Z,41.10
2023-05-19T21:59:28.035Z,41.10
2023-05-19T22:01:55.014Z,41.20
2023-05-19T22:04:22.766Z,41.30
2023-05-19T22:06:49.694Z,41.30
2023-05-19T22:09:16.671Z,41.30
2023-05-19T22:11:43.610Z,41.50
2023-05-19T22:14:10.788Z,42.20
2023-05-19T22:16:37.922Z,41.90
2023-05-19T22:19:05.000Z,42.00
2023-05-19T22:21:32.113Z,42.10
2023-05-19T22:23:59.061Z,42.10
2023-05-19T22:26:26.100Z,42.30
2023-05-19T22:28:53.427Z,42.20
2023-05-19T22:31:20.679Z,43.00
2023-05-19T22:33:47.526Z,42.50
2023-05-19T22:36:16.057Z,42.50
2023-05-19T22:38:42.916Z,42.60
2023-05-19T22:41:09.735Z,42.80
2023-05-19T22:43:36.726Z,42.70
2023-05-19T22:46:03.688Z,42.90
2023-05-19T22:48:30.576Z,42.90
2023-05-19T22:50:57.409Z,43.00
2023-05-19T22:53:24.240Z,43.10
2023-05-19T22:55:51.342Z,43.30
2023-05-19T22:58:18.158Z,43.30
2023-05-19T23:00:44.992Z,43.20
2023-05-19T23:03:12.594Z,43.30
2023-05-19T23:05:40.570Z,43.40
2023-05-19T23:08:07.430Z,43.70
2023-05-19T23:10:34.265Z,43.60
2023-05-19T23:13:01.131Z,43.60
2023-05-19T23:15:28.012Z,43.60
2023-05-19T23:17:54.881Z,43.60
2023-05-19T23:20:21.854Z,43.60
2023-05-19T23:22:48.682Z,43.70
2023-05-19T23:25:15.547Z,43.80
2023-05-19T23:27:42.528Z,43.90
2023-05-19T23:30:09.650Z,44.00
2023-05-19T23:32:36.475Z,44.10
2023-05-19T23:35:29.581Z,44.50
2023-05-19T23:37:56.382Z,45.00
2023-05-19T23:40:23.250Z,44.50
2023-05-19T23:42:50.155Z,44.60
2023-05-19T23:45:17.024Z,44.70
2023-05-19T23:47:43.856Z,44.90
2023-05-19T23:50:10.802Z,44.90
2023-05-19T23:52:37.581Z,44.90
2023-05-19T23:55:04.814Z,44.90
2023-05-19T23:57:31.653Z,45.10
2023-05-19T23:59:58.861Z,45.10
